首页
METAR-TAF:

METAR-TAF

机场 :

香農機場

Shannon, 爱尔兰

纬度: 52-42N, 经度: 008-55W, 海拔: 14米

当前天气观测

该预报发布于39分钟前的23:00 UTC
风速5节,风向东北
温度 4°C
湿度 93%
气压 1028 hPa
能見度: 4000
少量云层高于1000英尺
散云层高于12000英尺
轻雾

METAR: EINN 022300Z 05005KT 4000 BR FEW010 SCT120 04/03 Q1028 TEMPO 3000

时间: 23:39 (23:39 UTC)

预报

该预报发布于6小时和39分钟前的17:00 UTC
预报有效从02日的 18点(UTC)到 03日的 18点(UTC)
风速7节,风向东北
能見度: 8000
散云层高于2000英尺
短暂存在
从 02日的 22点(UTC)到 03日的 09点(UTC)
能見度: 3000
多云层高于700英尺
轻雾
几率 30% :
短暂存在
从 03日的 02点(UTC)到 03日的 09点(UTC)
能見度: 0600
多云层高于200英尺

TAF: EINN 021700Z 0218/0318 05007KT 8000 SCT020 TEMPO 0222/0309 3000 BR BKN007 PROB30 TEMPO 0302/0309 0600 FG BKN002

超过4000个机场的气象观测和天气预报(METAR&TAF报告)。

可查询的气象台以黄色和红色小点在地图上表示。

将鼠标移到小点上方,可查看气象台名称。

然后点击查看天气观测和预报。

如需切换地图:点击带黑十字的绿色按钮放大地图;点击带横线的绿色按钮缩小地图;或者点击绿色箭头查看邻近地区的地图。


METAR-TAF: